(°C)
-18°
-18°
-18°
-17°
-17°
-18°
-18°
(°C)
-23°
-23°
-23°
-23°
-23°
-23°
-23°
SE
SE
SE
SE
SE
SE
SE
(km/h)
7-23
7-24
7-25
8-26
8-28
8-28
8-28
(mm)
1
0
0
0
0
0
0
(%)
25
0
0
0
0
0
0

Elevação do sol

/ -17.1°
sun-icon
UV 1
07:46
16:03
Quarto Minguante (269°)
00:00
10:26

METAR para 55.61°N 49.28°L (UWKD)

Hora Condições Temperatura/
Ponto de condensação
Vento Visibilidade Tempo Nuvens Pressão Mudança Bruto
MVFR °C / °C 140º 4kt >10km Light Snow 1.00mm precipitation Vertical Visibility of 0ft. 1024 No Significant change. Runway 11: Compacted snow, 1-10% contamination with <1mm, friction coefficient 0.50. UWKD 251430Z 14002MPS 9999 -SN BKN010 M18/M21 Q1024 R11/810050 NOSIG RMK QFE758/1011
MVFR °C / °C 150º 6kt 6000m Light Snow 1.00mm precipitation Vertical Visibility of 0ft. 1024 No Significant change. Runway 11: Compacted snow, 1-10% contamination with <1mm, friction coefficient 0.50. UWKD 251400Z 15003MPS 6000 -SN BKN010 M17/M20 Q1024 R11/810050 NOSIG RMK QFE758/1011
MVFR °C / °C 150º 4kt 7000m Light Snow 1.00mm precipitation Vertical Visibility of 0ft. 1024 No Significant change. Runway 11: Compacted snow, 1-10% contamination with <1mm, friction coefficient 0.50. UWKD 251330Z 15002MPS 7000 -SN SCT010 M18/M20 Q1024 R11/810050 NOSIG RMK QFE758/1011
MVFR °C / °C 150º 4kt 6000m Light Snow 1.00mm precipitation Vertical Visibility of 0ft. 1025 No Significant change. Runway 11: Compacted snow, 1-10% contamination with <1mm, friction coefficient 0.50. UWKD 251300Z 15002MPS 6000 -SN SCT008 M17/M19 Q1025 R11/810050 NOSIG RMK QFE758/1011
MVFR °C / °C 140º 2kt 5000m Light Snow Mist 1.00mm precipitation Vertical Visibility of 0ft. 1025 No Significant change. Runway 11: Compacted snow, 1-10% contamination with <1mm, friction coefficient 0.50. UWKD 251230Z 14001MPS 5000 -SN BR SCT006 M17/M20 Q1025 R11/810050 NOSIG RMK QFE758/1011
IFR °C / °C 150º 2kt 4500m Light Snow Mist 1.00mm precipitation Vertical Visibility of 0ft. 1025 No Significant change. Runway 11: Compacted snow, 1-10% contamination with <1mm, friction coefficient 0.50. UWKD 251200Z 15001MPS 4500 -SN BR SCT006 M17/M19 Q1025 R11/810050 NOSIG RMK QFE759/1012
MVFR °C / °C 150º 2kt 7000m Light Snow 1.00mm precipitation Vertical Visibility of 0ft. 1025 No Significant change. Runway 11: Compacted snow, 1-10% contamination with <1mm, friction coefficient 0.50. UWKD 251130Z 15001MPS 7000 -SN SCT008 M17/M20 Q1025 R11/810050 NOSIG RMK QFE759/1012
MVFR °C / °C 160º 2kt 8000m Light Snow 1.00mm precipitation Vertical Visibility of 0ft. 1025 No Significant change. Runway 11: Compacted snow, 1-10% contamination with <1mm, friction coefficient 0.50. UWKD 251100Z 16001MPS 8000 -SN SCT005 M17/M20 Q1025 R11/810050 NOSIG RMK QFE759/1012
VFR °C / °C 140º 2kt >10km - Scattered Clouds 300ft 1026 No Significant change. Runway 11: Compacted snow, 1-10% contamination with <1mm, friction coefficient 0.50. UWKD 251030Z 14001MPS 9999 SCT003 M17/M20 Q1026 R11/810050 NOSIG RMK QFE759/1012
LIFR °C / °C variable 2kt 7000m Light Snow 1.00mm precipitation Vertical Visibility of 0ft. 1026 No Significant change. Runway 11: Compacted snow, 1-10% contamination with <1mm, friction coefficient 0.50. UWKD 251000Z VRB01MPS 7000 -SN BKN004 M16/M19 Q1026 R11/810050 NOSIG RMK QFE759/1013
IFR °C / °C 150º 2kt 4700m Light Snow 1.00mm precipitation Vertical Visibility of 0ft. 1026 No Significant change. Runway 11: Compacted snow, 1-10% contamination with <1mm, friction coefficient 0.50. UWKD 250930Z 15001MPS 4700 -SN SCT003 M17/M20 Q1026 R11/810050 NOSIG RMK QFE760/1013
VFR °C / °C 160º 2kt 9000m - Scattered Clouds 400ft 1027 No Significant change. Runway 11: Compacted snow, 1-10% contamination with <1mm, friction coefficient 0.50. UWKD 250900Z 16001MPS 9000 SCT004 M18/M20 Q1027 R11/810050 NOSIG RMK QFE760/1014
MVFR °C / °C 160º 2kt 5000m Mist Vertical Visibility of 0ft. 1027 No Significant change. Runway 11: Compacted snow, 1-10% contamination with <1mm, friction coefficient 0.50. UWKD 250830Z 16001MPS 5000 BR SCT004 M19/M21 Q1027 R11/810050 NOSIG RMK QFE760/1014
IFR °C / °C variable 0kt 4800m Mist Vertical Visibility of 0ft. 1028 Temporary: Scattered Clouds 700ft. RMK QFE761/1014 . Runway 11: Compacted snow, 1-10% contamination with <1mm, friction coefficient 0.50. UWKD 250800Z 00000MPS 4800 BR SCT005 M19/M22 Q1028 R11/810050 TEMPO SCT007 RMK QFE761/1014
VFR °C / °C 170º 2kt >10km - Scattered Clouds 200ft 1028 Temporary: Scattered Clouds 500ft. RMK QBB080 QFE761/1014 . Runway 11: Compacted snow, 1-10% contamination with <1mm, friction coefficient 0.50. UWKD 250730Z 17001MPS 9999 SCT002 M19/M22 Q1028 R11/810050 TEMPO SCT005 RMK QBB080 QFE761/1014
VFR °C / °C variable 0kt 9000m - Scattered Clouds 300ft 1028 Temporary: Scattered Clouds 500ft. RMK QFE761/1015 . Runway 11: Compacted snow, 1-10% contamination with <1mm, friction coefficient 0.50. UWKD 250700Z 00000MPS 9000 SCT003 M19/M21 Q1028 R11/810050 TEMPO SCT005 RMK QFE761/1015
MVFR °C / °C variable 0kt 8000m - Scattered Clouds 200ft 1028 Temporary: Visibility 0500. freezing Fog . VV002 RMK QBB080 QFE761/1015 . Runway 11: Compacted snow, 1-10% contamination with <1mm, friction coefficient 0.50. UWKD 250630Z 00000MPS 8000 SCT002 M20/M23 Q1028 R11/810050 TEMPO 0500 FZFG VV002 RMK QBB080 QFE761/1015
MVFR °C / °C 190º 2kt 6000m - Scattered Clouds 200ft 1028 Temporary: Visibility 0500. freezing Fog . VV002 RMK QBB070 QFE761/1015 . Runway 11: Compacted snow, 1-10% contamination with <1mm, friction coefficient 0.50. UWKD 250600Z 19001MPS 6000 SCT002 M21/M24 Q1028 R11/810050 TEMPO 0500 FZFG VV002 RMK QBB070 QFE761/1015
IFR °C / °C 170º 2kt 4000m Mist Vertical Visibility of 0ft. 1028 Temporary: Visibility 0500. freezing Fog . VV002 RMK QFE761/1015 . Runway 11: Compacted snow, 1-10% contamination with <1mm, friction coefficient 0.50. UWKD 250530Z 17001MPS 4000 BR SCT003 M21/M24 Q1028 R11/810050 TEMPO 0500 FZFG VV002 RMK QFE761/1015
LIFR °C / °C 150º 2kt 400m. Runway 11: Visual range is 500m and increasing. freezing Fog Vertical Visibility of 0ft. 1029 No Significant change. Runway 11: Compacted snow, 1-10% contamination with <1mm, friction coefficient 0.50. UWKD 250500Z 15001MPS 0400 0300SW R11/0500U FZFG VV002 M21/M24 Q1029 R11/810050 NOSIG RMK QBB070 QFE761/1015
LIFR °C / °C 140º 2kt 140m. Runway 11: Visual range is 300m. freezing Fog Vertical Visibility of 0ft. 1029 No Significant change. Runway 11: Compacted snow, 1-10% contamination with <1mm, friction coefficient 0.50. UWKD 250430Z 14001MPS 0150 R11/0300N FZFG BKN002 M21/M24 Q1029 R11/810050 NOSIG RMK QBB060 QFE761/1015
LIFR °C / °C 130º 2kt 550m freezing Fog Vertical Visibility of 0ft. 1029 No Significant change. Runway 11: Compacted snow, 1-10% contamination with <1mm, friction coefficient 0.50. UWKD 250400Z 13001MPS 0550 0350SW FZFG BKN002 M21/M24 Q1029 R11/810050 NOSIG RMK QBB070 QFE762/1016
LIFR °C / °C variable 0kt 2600m freezing Fog Vertical Visibility of 0ft. 1029 No Significant change. Runway 11: Compacted snow, 1-10% contamination with <1mm, friction coefficient 0.50. UWKD 250330Z 00000MPS 2600 0750SE FZFG BKN002 M21/M24 Q1029 R11/810050 NOSIG RMK QBB070 QFE762/1016
LIFR °C / °C variable 0kt 2600m freezing Fog Vertical Visibility of 0ft. 1030 No Significant change. Runway 11: Compacted snow, 1-10% contamination with <1mm, friction coefficient 0.50. UWKD 250300Z 00000MPS 2600 0200SE FZFG BKN002 M21/M24 Q1030 R11/810050 NOSIG RMK QBB070 QFE762/1016

MVFR

°C / °C

[Mais]
Vento 140º 4kt
Visibilidade >10km
Tempo Light Snow 1.00mm precipitation
Nuvens Vertical Visibility of 0ft.
Pressão 1024
Mudança No Significant change. Runway 11: Compacted snow, 1-10% contamination with <1mm, friction coefficient 0.50.
Bruto UWKD 251430Z 14002MPS 9999 -SN BKN010 M18/M21 Q1024 R11/810050 NOSIG RMK QFE758/1011

MVFR

°C / °C

[Mais]
Vento 150º 6kt
Visibilidade 6000m
Tempo Light Snow 1.00mm precipitation
Nuvens Vertical Visibility of 0ft.
Pressão 1024
Mudança No Significant change. Runway 11: Compacted snow, 1-10% contamination with <1mm, friction coefficient 0.50.
Bruto UWKD 251400Z 15003MPS 6000 -SN BKN010 M17/M20 Q1024 R11/810050 NOSIG RMK QFE758/1011

MVFR

°C / °C

[Mais]
Vento 150º 4kt
Visibilidade 7000m
Tempo Light Snow 1.00mm precipitation
Nuvens Vertical Visibility of 0ft.
Pressão 1024
Mudança No Significant change. Runway 11: Compacted snow, 1-10% contamination with <1mm, friction coefficient 0.50.
Bruto UWKD 251330Z 15002MPS 7000 -SN SCT010 M18/M20 Q1024 R11/810050 NOSIG RMK QFE758/1011

MVFR

°C / °C

[Mais]
Vento 150º 4kt
Visibilidade 6000m
Tempo Light Snow 1.00mm precipitation
Nuvens Vertical Visibility of 0ft.
Pressão 1025
Mudança No Significant change. Runway 11: Compacted snow, 1-10% contamination with <1mm, friction coefficient 0.50.
Bruto UWKD 251300Z 15002MPS 6000 -SN SCT008 M17/M19 Q1025 R11/810050 NOSIG RMK QFE758/1011

MVFR

°C / °C

[Mais]
Vento 140º 2kt
Visibilidade 5000m
Tempo Light Snow Mist 1.00mm precipitation
Nuvens Vertical Visibility of 0ft.
Pressão 1025
Mudança No Significant change. Runway 11: Compacted snow, 1-10% contamination with <1mm, friction coefficient 0.50.
Bruto UWKD 251230Z 14001MPS 5000 -SN BR SCT006 M17/M20 Q1025 R11/810050 NOSIG RMK QFE758/1011

IFR

°C / °C

[Mais]
Vento 150º 2kt
Visibilidade 4500m
Tempo Light Snow Mist 1.00mm precipitation
Nuvens Vertical Visibility of 0ft.
Pressão 1025
Mudança No Significant change. Runway 11: Compacted snow, 1-10% contamination with <1mm, friction coefficient 0.50.
Bruto UWKD 251200Z 15001MPS 4500 -SN BR SCT006 M17/M19 Q1025 R11/810050 NOSIG RMK QFE759/1012

MVFR

°C / °C

[Mais]
Vento 150º 2kt
Visibilidade 7000m
Tempo Light Snow 1.00mm precipitation
Nuvens Vertical Visibility of 0ft.
Pressão 1025
Mudança No Significant change. Runway 11: Compacted snow, 1-10% contamination with <1mm, friction coefficient 0.50.
Bruto UWKD 251130Z 15001MPS 7000 -SN SCT008 M17/M20 Q1025 R11/810050 NOSIG RMK QFE759/1012

MVFR

°C / °C

[Mais]
Vento 160º 2kt
Visibilidade 8000m
Tempo Light Snow 1.00mm precipitation
Nuvens Vertical Visibility of 0ft.
Pressão 1025
Mudança No Significant change. Runway 11: Compacted snow, 1-10% contamination with <1mm, friction coefficient 0.50.
Bruto UWKD 251100Z 16001MPS 8000 -SN SCT005 M17/M20 Q1025 R11/810050 NOSIG RMK QFE759/1012

VFR

°C / °C

[Mais]
Vento 140º 2kt
Visibilidade >10km
Tempo -
Nuvens Scattered Clouds 300ft
Pressão 1026
Mudança No Significant change. Runway 11: Compacted snow, 1-10% contamination with <1mm, friction coefficient 0.50.
Bruto UWKD 251030Z 14001MPS 9999 SCT003 M17/M20 Q1026 R11/810050 NOSIG RMK QFE759/1012

LIFR

°C / °C

[Mais]
Vento variable 2kt
Visibilidade 7000m
Tempo Light Snow 1.00mm precipitation
Nuvens Vertical Visibility of 0ft.
Pressão 1026
Mudança No Significant change. Runway 11: Compacted snow, 1-10% contamination with <1mm, friction coefficient 0.50.
Bruto UWKD 251000Z VRB01MPS 7000 -SN BKN004 M16/M19 Q1026 R11/810050 NOSIG RMK QFE759/1013

IFR

°C / °C

[Mais]
Vento 150º 2kt
Visibilidade 4700m
Tempo Light Snow 1.00mm precipitation
Nuvens Vertical Visibility of 0ft.
Pressão 1026
Mudança No Significant change. Runway 11: Compacted snow, 1-10% contamination with <1mm, friction coefficient 0.50.
Bruto UWKD 250930Z 15001MPS 4700 -SN SCT003 M17/M20 Q1026 R11/810050 NOSIG RMK QFE760/1013

VFR

°C / °C

[Mais]
Vento 160º 2kt
Visibilidade 9000m
Tempo -
Nuvens Scattered Clouds 400ft
Pressão 1027
Mudança No Significant change. Runway 11: Compacted snow, 1-10% contamination with <1mm, friction coefficient 0.50.
Bruto UWKD 250900Z 16001MPS 9000 SCT004 M18/M20 Q1027 R11/810050 NOSIG RMK QFE760/1014

MVFR

°C / °C

[Mais]
Vento 160º 2kt
Visibilidade 5000m
Tempo Mist
Nuvens Vertical Visibility of 0ft.
Pressão 1027
Mudança No Significant change. Runway 11: Compacted snow, 1-10% contamination with <1mm, friction coefficient 0.50.
Bruto UWKD 250830Z 16001MPS 5000 BR SCT004 M19/M21 Q1027 R11/810050 NOSIG RMK QFE760/1014

IFR

°C / °C

[Mais]
Vento variable 0kt
Visibilidade 4800m
Tempo Mist
Nuvens Vertical Visibility of 0ft.
Pressão 1028
Mudança Temporary: Scattered Clouds 700ft. RMK QFE761/1014 . Runway 11: Compacted snow, 1-10% contamination with <1mm, friction coefficient 0.50.
Bruto UWKD 250800Z 00000MPS 4800 BR SCT005 M19/M22 Q1028 R11/810050 TEMPO SCT007 RMK QFE761/1014

VFR

°C / °C

[Mais]
Vento 170º 2kt
Visibilidade >10km
Tempo -
Nuvens Scattered Clouds 200ft
Pressão 1028
Mudança Temporary: Scattered Clouds 500ft. RMK QBB080 QFE761/1014 . Runway 11: Compacted snow, 1-10% contamination with <1mm, friction coefficient 0.50.
Bruto UWKD 250730Z 17001MPS 9999 SCT002 M19/M22 Q1028 R11/810050 TEMPO SCT005 RMK QBB080 QFE761/1014

VFR

°C / °C

[Mais]
Vento variable 0kt
Visibilidade 9000m
Tempo -
Nuvens Scattered Clouds 300ft
Pressão 1028
Mudança Temporary: Scattered Clouds 500ft. RMK QFE761/1015 . Runway 11: Compacted snow, 1-10% contamination with <1mm, friction coefficient 0.50.
Bruto UWKD 250700Z 00000MPS 9000 SCT003 M19/M21 Q1028 R11/810050 TEMPO SCT005 RMK QFE761/1015

MVFR

°C / °C

[Mais]
Vento variable 0kt
Visibilidade 8000m
Tempo -
Nuvens Scattered Clouds 200ft
Pressão 1028
Mudança Temporary: Visibility 0500. freezing Fog . VV002 RMK QBB080 QFE761/1015 . Runway 11: Compacted snow, 1-10% contamination with <1mm, friction coefficient 0.50.
Bruto UWKD 250630Z 00000MPS 8000 SCT002 M20/M23 Q1028 R11/810050 TEMPO 0500 FZFG VV002 RMK QBB080 QFE761/1015

MVFR

°C / °C

[Mais]
Vento 190º 2kt
Visibilidade 6000m
Tempo -
Nuvens Scattered Clouds 200ft
Pressão 1028
Mudança Temporary: Visibility 0500. freezing Fog . VV002 RMK QBB070 QFE761/1015 . Runway 11: Compacted snow, 1-10% contamination with <1mm, friction coefficient 0.50.
Bruto UWKD 250600Z 19001MPS 6000 SCT002 M21/M24 Q1028 R11/810050 TEMPO 0500 FZFG VV002 RMK QBB070 QFE761/1015

IFR

°C / °C

[Mais]
Vento 170º 2kt
Visibilidade 4000m
Tempo Mist
Nuvens Vertical Visibility of 0ft.
Pressão 1028
Mudança Temporary: Visibility 0500. freezing Fog . VV002 RMK QFE761/1015 . Runway 11: Compacted snow, 1-10% contamination with <1mm, friction coefficient 0.50.
Bruto UWKD 250530Z 17001MPS 4000 BR SCT003 M21/M24 Q1028 R11/810050 TEMPO 0500 FZFG VV002 RMK QFE761/1015

LIFR

°C / °C

[Mais]
Vento 150º 2kt
Visibilidade 400m. Runway 11: Visual range is 500m and increasing.
Tempo freezing Fog
Nuvens Vertical Visibility of 0ft.
Pressão 1029
Mudança No Significant change. Runway 11: Compacted snow, 1-10% contamination with <1mm, friction coefficient 0.50.
Bruto UWKD 250500Z 15001MPS 0400 0300SW R11/0500U FZFG VV002 M21/M24 Q1029 R11/810050 NOSIG RMK QBB070 QFE761/1015

LIFR

°C / °C

[Mais]
Vento 140º 2kt
Visibilidade 140m. Runway 11: Visual range is 300m.
Tempo freezing Fog
Nuvens Vertical Visibility of 0ft.
Pressão 1029
Mudança No Significant change. Runway 11: Compacted snow, 1-10% contamination with <1mm, friction coefficient 0.50.
Bruto UWKD 250430Z 14001MPS 0150 R11/0300N FZFG BKN002 M21/M24 Q1029 R11/810050 NOSIG RMK QBB060 QFE761/1015

LIFR

°C / °C

[Mais]
Vento 130º 2kt
Visibilidade 550m
Tempo freezing Fog
Nuvens Vertical Visibility of 0ft.
Pressão 1029
Mudança No Significant change. Runway 11: Compacted snow, 1-10% contamination with <1mm, friction coefficient 0.50.
Bruto UWKD 250400Z 13001MPS 0550 0350SW FZFG BKN002 M21/M24 Q1029 R11/810050 NOSIG RMK QBB070 QFE762/1016

LIFR

°C / °C

[Mais]
Vento variable 0kt
Visibilidade 2600m
Tempo freezing Fog
Nuvens Vertical Visibility of 0ft.
Pressão 1029
Mudança No Significant change. Runway 11: Compacted snow, 1-10% contamination with <1mm, friction coefficient 0.50.
Bruto UWKD 250330Z 00000MPS 2600 0750SE FZFG BKN002 M21/M24 Q1029 R11/810050 NOSIG RMK QBB070 QFE762/1016

LIFR

°C / °C

[Mais]
Vento variable 0kt
Visibilidade 2600m
Tempo freezing Fog
Nuvens Vertical Visibility of 0ft.
Pressão 1030
Mudança No Significant change. Runway 11: Compacted snow, 1-10% contamination with <1mm, friction coefficient 0.50.
Bruto UWKD 250300Z 00000MPS 2600 0200SE FZFG BKN002 M21/M24 Q1030 R11/810050 NOSIG RMK QBB070 QFE762/1016

TAF para 55.61°N 49.28°L (UWKD)

From till


Maximum Temperature -12ºC on . Minimum Temperature -20ºC on .
From till Wind 120º 4kt. Visibility 6000m. Light Snow . Overcast 1600ft.
Temporarly from till Visibility 997.791m. Mist . Scattered Clouds 300ft.
From till Wind 180º 6kt. Visibility 3100m. Light Snow . Overcast 700ft.
Temporarly from till Visibility 997.791m. Snow . Broken Clouds 400ft.

Bruto: TAF UWKD 251350Z 2515/2615 12002MPS 6000 -SN OVC016 TXM12/2615Z TNM20/2520Z TEMPO 2515/2606 1000 BR SCT003 FM261000 18003MPS 3100 -SN OVC007 TEMPO 2610/2615 1000 SN BKN004

Radar e precipitação nowcast para 55.61°N 49.28°L

Chuvisco
Leve
Moderado
Forte
Muito forte
Granizo

O marcador do lugar é colocado em 55.61°N 49.28°L. Esta animação mostra o radar de precipitação para a última hora, assim como a 1h previsão. A queda de neve pode ser invisível para o radar. A intensidade da precipitação é codificada por cores, variando do azul claro ao laranja.

Imagens atuais de satélite e precipitação para 55.61°N 49.28°L

O marcador de lugar é colocado em 55.61°N 49.28°L. [Mais]

A imagem de satélite em tempo real combina luz visível durante o dia com radiação infravermelha durante a noite. À noite, a imagem não é escura, pois a radiação infravermelha pode detectar diferenças de temperatura. Infelizmente, nuvens baixas e neblina são difíceis de distinguir das temperaturas do solo e, portanto, podem ser quase invisíveis durante a noite. As imagens de satélite Meteosat para a Europa são atualizadas em tempo real a cada 5 minutos. GOES-16/GOES-17 ( América do Norte e do Sul) e Himawari (Ásia) são atualizadas a cada 10 minutos.

Copyright 2022 EUMETSAT / meteoblue. / Copyright 2022 meteoblue